Time;durP1;ratioP1;P1;durP2;ratioP2;P2;SDS_P1;SDS_P2;PMS_P1;PMS_P2;Temp;Humidity;BMP_temperature;BMP_pressure;BME280_temperature;BME280_humidity;BME280_pressure;Samples;Min_cycle;Max_cycle;Signal;HPM_P1;HPM_P2
2021/04/04 00:00:14;;;;;;;13.67;9.47;;;;;;;5.34;58.59;99321.39;255102;1116;115074;-87
2021/04/04 00:05:38;;;;;;;14.10;9.38;;;;;;;5.34;58.65;99326.67;256719;1116;114767;-86
2021/04/04 00:10:41;;;;;;;16.35;9.15;;;;;;;5.35;58.91;99319.61;258377;1114;114711;-85
2021/04/04 00:15:43;;;;;;;15.03;9.95;;;;;;;5.41;58.92;99330.80;258410;1116;115096;-86
2021/04/04 00:20:47;;;;;;;15.63;9.77;;;;;;;5.42;58.34;99326.38;258360;1116;114618;-81
2021/04/04 00:25:49;;;;;;;16.58;9.88;;;;;;;5.43;58.50;99330.73;258400;1114;114513;-84
2021/04/04 00:30:52;;;;;;;16.65;9.60;;;;;;;5.41;58.10;99330.80;258356;1116;114771;-87
2021/04/04 00:35:55;;;;;;;14.20;8.85;;;;;;;5.46;58.18;99333.27;258365;1107;114410;-88
2021/04/04 00:40:58;;;;;;;16.18;8.55;;;;;;;5.44;58.85;99341.25;258385;1114;114652;-87
2021/04/04 00:46:01;;;;;;;14.53;8.93;;;;;;;5.45;58.52;99342.97;258348;1116;114736;-88
2021/04/04 00:51:05;;;;;;;15.58;8.73;;;;;;;5.43;58.50;99343.92;258280;1116;114328;-87
2021/04/04 00:56:08;;;;;;;15.33;9.13;;;;;;;5.40;58.15;99347.56;258403;1116;114429;-85
2021/04/04 01:01:11;;;;;;;16.98;8.63;;;;;;;5.37;58.58;99346.81;258031;1116;114594;-85
2021/04/04 01:06:14;;;;;;;13.00;8.53;;;;;;;5.38;58.69;99353.80;258425;1116;114386;-88
2021/04/04 01:11:26;;;;;;;13.58;8.50;;;;;;;5.36;57.92;99348.56;258522;1116;114654;-86
2021/04/04 01:16:38;;;;;;;16.10;8.35;;;;;;;5.34;58.78;99352.20;258360;1116;114440;-89
2021/04/04 01:21:49;;;;;;;16.80;8.93;;;;;;;5.32;58.21;99354.88;258381;1116;114791;-89
2021/04/04 01:27:16;;;;;;;15.35;7.85;;;;;;;5.30;58.12;99354.09;258417;1109;114436;-87
2021/04/04 01:32:19;;;;;;;16.13;7.93;;;;;;;5.30;57.95;99358.48;258710;1116;114032;-87
2021/04/04 01:37:22;;;;;;;12.95;7.55;;;;;;;5.28;58.57;99361.19;258479;1116;114409;-88
2021/04/04 01:42:25;;;;;;;11.45;6.58;;;;;;;5.27;58.83;99362.11;258408;1116;114577;-87
2021/04/04 01:47:28;;;;;;;15.15;7.73;;;;;;;5.24;58.19;99364.85;258324;1116;114459;-86
2021/04/04 01:52:33;;;;;;;13.03;7.45;;;;;;;5.20;58.14;99369.38;258354;1116;114555;-88
2021/04/04 01:57:37;;;;;;;14.00;7.98;;;;;;;5.18;58.10;99375.61;258386;1114;114660;-84
2021/04/04 02:02:41;;;;;;;12.58;7.33;;;;;;;5.16;58.70;99372.16;258363;1114;114955;-85
2021/04/04 02:07:50;;;;;;;;;;;;;;;5.13;58.31;99369.62;258405;1116;114568;-85
2021/04/04 02:12:56;;;;;;;12.53;7.13;;;;;;;5.09;58.57;99379.41;258378;1115;102037;-86
2021/04/04 02:18:01;;;;;;;14.08;7.43;;;;;;;5.06;58.16;99389.21;258282;1116;114479;-84
2021/04/04 02:23:06;;;;;;;12.78;7.48;;;;;;;5.06;58.08;99387.46;258411;1116;115005;-85
2021/04/04 02:28:09;;;;;;;14.00;7.05;;;;;;;5.07;58.11;99398.87;257818;1116;114596;-89
2021/04/04 02:33:17;;;;;;;15.85;6.88;;;;;;;5.05;58.50;99396.27;258406;1116;114463;-85
2021/04/04 02:38:28;;;;;;;14.30;6.73;;;;;;;5.05;58.29;99390.13;258323;1115;115202;-81
2021/04/04 02:43:36;;;;;;;11.78;6.60;;;;;;;5.05;58.42;99398.05;258375;1114;114688;-86
2021/04/04 02:48:50;;;;;;;13.00;6.93;;;;;;;5.03;58.35;99399.86;258331;1116;114718;-86
2021/04/04 02:53:54;;;;;;;12.15;6.18;;;;;;;5.02;57.64;99401.64;258364;1116;115069;-86
2021/04/04 02:58:59;;;;;;;12.55;6.30;;;;;;;5.03;57.92;99402.50;258263;1116;116591;-85
2021/04/04 03:04:05;;;;;;;10.50;5.68;;;;;;;5.00;57.63;99399.99;258401;1116;114321;-84
2021/04/04 03:09:11;;;;;;;9.83;5.40;;;;;;;4.94;57.43;99409.82;258393;1116;114444;-84
2021/04/04 03:14:16;;;;;;;11.83;5.77;;;;;;;4.93;57.63;99417.80;258335;1116;114483;-88
2021/04/04 03:19:19;;;;;;;11.98;5.08;;;;;;;4.89;57.61;99409.13;258356;1115;114936;-87
2021/04/04 03:24:26;;;;;;;13.80;5.85;;;;;;;4.89;57.76;99416.14;258268;1116;114419;-88
2021/04/04 03:29:30;;;;;;;12.15;5.83;;;;;;;4.88;57.27;99412.65;258380;1116;114432;-87
2021/04/04 03:34:35;;;;;;;11.73;5.53;;;;;;;4.89;57.83;99414.40;258402;1116;114533;-86
2021/04/04 03:39:39;;;;;;;;;;;;;;;4.89;57.62;99424.05;258398;1114;114684;-86
2021/04/04 03:44:43;;;;;;;9.05;5.15;;;;;;;4.85;57.56;99425.94;258437;1116;100793;-86
2021/04/04 03:49:47;;;;;;;11.45;4.93;;;;;;;4.84;57.95;99420.72;258376;1116;114268;-86
2021/04/04 03:54:52;;;;;;;8.70;4.33;;;;;;;4.81;57.46;99418.19;258397;1116;114654;-86
2021/04/04 03:59:57;;;;;;;9.90;4.45;;;;;;;4.76;57.69;99426.25;258279;1116;114789;-86
2021/04/04 04:05:01;;;;;;;11.80;4.90;;;;;;;4.75;57.34;99419.23;258449;1115;114054;-86
2021/04/04 04:10:06;;;;;;;8.03;4.75;;;;;;;4.64;57.11;99418.72;258370;1114;114479;-87
2021/04/04 04:15:13;;;;;;;;;;;;;;;4.55;57.24;99432.19;258350;1114;115007;-88
2021/04/04 04:20:17;;;;;;;8.53;4.45;;;;;;;4.39;57.42;99432.67;258383;1116;100995;-87
2021/04/04 04:25:21;;;;;;;9.85;4.70;;;;;;;4.35;57.69;99440.69;258209;1116;114270;-88
2021/04/04 04:30:25;;;;;;;9.78;4.75;;;;;;;4.32;57.72;99440.81;258201;1117;114224;-86
2021/04/04 04:35:30;;;;;;;8.40;4.67;;;;;;;4.26;57.06;99445.34;258160;1118;114435;-86
2021/04/04 04:40:33;;;;;;;15.83;5.27;;;;;;;4.18;57.30;99454.40;258254;1117;114290;-87
2021/04/04 04:45:39;;;;;;;10.50;5.18;;;;;;;4.15;57.52;99449.22;258229;1114;114946;-89
2021/04/04 04:50:44;;;;;;;11.13;5.08;;;;;;;4.12;57.55;99449.30;258360;1116;114342;-86
2021/04/04 04:55:49;;;;;;;11.30;5.03;;;;;;;4.13;57.90;99457.14;258474;1114;114424;-85
2021/04/04 05:00:55;;;;;;;10.70;5.18;;;;;;;4.15;57.45;99459.75;258429;1116;115249;-81
2021/04/04 05:06:05;;;;;;;10.40;5.00;;;;;;;4.15;57.89;99454.48;258039;1116;114442;-83
2021/04/04 05:11:12;;;;;;;11.03;5.20;;;;;;;4.14;57.98;99473.81;258358;1116;114526;-86
2021/04/04 05:16:16;;;;;;;11.65;5.38;;;;;;;4.14;57.65;99465.91;258371;1116;114459;-86
2021/04/04 05:21:26;;;;;;;13.43;5.20;;;;;;;4.14;57.75;99473.81;258395;1115;114342;-87
2021/04/04 05:26:34;;;;;;;12.15;5.33;;;;;;;4.17;58.08;99456.14;258455;1116;114718;-87
2021/04/04 05:31:46;;;;;;;10.60;4.83;;;;;;;4.23;57.73;99463.02;258197;1116;114429;-89
2021/04/04 05:36:53;;;;;;;9.58;4.83;;;;;;;4.26;58.12;99463.78;258291;1116;114390;-89
2021/04/04 05:41:59;;;;;;;12.43;5.20;;;;;;;4.36;58.07;99466.16;256890;1115;114318;-84
2021/04/04 05:47:07;;;;;;;;;;;;;;;4.38;57.76;99475.75;258499;1116;114412;-83
2021/04/04 05:52:22;;;;;;;9.25;4.35;;;;;;;4.39;58.01;99476.61;258479;1115;101704;-84
2021/04/04 05:58:02;;;;;;;7.48;4.43;;;;;;;4.42;58.11;99490.55;258393;1114;114261;-87
2021/04/04 06:03:42;;;;;;;8.87;4.20;;;;;;;4.43;57.88;99486.14;258443;1116;114395;-86
2021/04/04 06:08:59;;;;;;;8.73;4.43;;;;;;;4.44;58.05;99503.66;258295;1116;114165;-86
2021/04/04 06:14:22;;;;;;;10.20;4.23;;;;;;;4.45;57.95;99490.46;258464;1116;114566;-90
2021/04/04 06:19:40;;;;;;;9.15;4.68;;;;;;;4.48;58.09;99500.92;258463;1114;114612;-86
2021/04/04 06:25:15;;;;;;;7.78;4.40;;;;;;;4.45;57.86;99479.92;258368;1116;114294;-87
2021/04/04 06:31:09;;;;;;;10.48;4.98;;;;;;;4.43;58.56;99486.14;258056;1117;114350;-87
2021/04/04 06:36:02;;;;;;;9.35;4.83;;;;;;;4.56;58.60;99489.28;258213;1116;114487;-87
2021/04/04 06:41:20;;;;;;;8.60;4.80;;;;;;;4.65;58.21;99478.43;258451;1114;114191;-85
2021/04/04 06:46:50;;;;;;;7.78;4.73;;;;;;;4.73;58.07;99486.98;258462;1116;114949;-85
2021/04/04 06:52:31;;;;;;;9.00;4.88;;;;;;;4.85;58.44;99494.48;258347;1114;114377;-86
2021/04/04 06:57:53;;;;;;;11.53;5.45;;;;;;;4.87;58.23;99503.23;258327;1116;114201;-86
2021/04/04 07:02:55;;;;;;;10.20;5.43;;;;;;;4.89;57.98;99500.53;258319;1116;114418;-85
2021/04/04 07:08:03;;;;;;;8.93;5.05;;;;;;;4.88;58.08;99498.81;258365;1114;114493;-86
2021/04/04 07:13:30;;;;;;;8.63;4.68;;;;;;;4.92;57.95;99510.98;258333;1116;115198;-86
2021/04/04 07:18:58;;;;;;;8.85;4.93;;;;;;;5.01;57.66;99509.84;258370;1116;114189;-85
2021/04/04 07:24:33;;;;;;;7.48;3.90;;;;;;;5.05;57.86;99519.38;258410;1116;114841;-78
2021/04/04 07:29:39;;;;;;;;;;;;;;;5.11;57.65;99516.55;258415;1116;114952;-88
2021/04/04 07:35:03;;;;;;;7.85;4.05;;;;;;;5.16;57.86;99510.23;258454;1116;101801;-84
2021/04/04 07:40:11;;;;;;;7.33;4.33;;;;;;;5.31;57.90;99519.41;258215;1115;114338;-82
2021/04/04 07:45:27;;;;;;;8.83;5.88;;;;;;;5.49;58.70;99511.78;258289;1116;114462;-82
2021/04/04 07:50:57;;;;;;;9.85;6.68;;;;;;;5.69;58.50;99511.97;258073;1116;114473;-79
2021/04/04 07:56:13;;;;;;;9.88;5.95;;;;;;;5.82;58.01;99517.70;258342;1116;114347;-79
2021/04/04 08:01:20;;;;;;;10.70;6.05;;;;;;;5.90;57.98;99513.84;258200;1114;115503;-74
2021/04/04 08:06:35;;;;;;;10.50;6.03;;;;;;;5.99;57.41;99510.06;258330;1116;114435;-89
2021/04/04 08:12:09;;;;;;;10.15;4.75;;;;;;;5.97;57.14;99514.53;258294;1116;114633;-89
2021/04/04 08:17:16;;;;;;;;;;;;;;;6.01;56.59;99517.92;258379;1116;115101;-90
2021/04/04 08:22:27;;;;;;;8.63;4.20;;;;;;;6.05;56.81;99528.34;258259;1116;100674;-87
2021/04/04 08:27:44;;;;;;;8.90;4.73;;;;;;;6.15;56.91;99518.31;258351;1116;114489;-85
2021/04/04 08:32:55;;;;;;;6.48;4.45;;;;;;;6.36;57.11;99522.80;258317;1116;114814;-86
2021/04/04 08:38:33;;;;;;;5.98;2.85;;;;;;;6.48;56.33;99520.61;258324;1116;114558;-88
2021/04/04 08:43:56;;;;;;;6.03;2.90;;;;;;;6.71;56.57;99517.95;258311;1116;114418;-90
2021/04/04 08:49:14;;;;;;;7.70;2.83;;;;;;;7.03;56.36;99506.13;258289;1116;114544;-89
2021/04/04 08:54:26;;;;;;;7.25;3.60;;;;;;;7.21;55.46;99509.80;258302;1116;114586;-89
2021/04/04 08:59:46;;;;;;;6.75;3.10;;;;;;;7.31;54.56;99519.09;258239;1116;114408;-88
2021/04/04 09:05:04;;;;;;;5.18;2.95;;;;;;;7.19;54.04;99513.43;257925;1116;114381;-80
2021/04/04 09:10:10;;;;;;;5.88;3.48;;;;;;;7.23;53.14;99504.44;258371;1116;114581;-77
2021/04/04 09:15:15;;;;;;;7.73;3.80;;;;;;;7.19;53.30;99506.34;258242;1116;114390;-79
2021/04/04 09:20:29;;;;;;;5.93;3.33;;;;;;;7.16;53.41;99509.12;258108;1114;114541;-84
2021/04/04 09:25:36;;;;;;;7.45;3.90;;;;;;;7.22;53.11;99508.88;257982;1114;114397;-84
2021/04/04 09:30:42;;;;;;;6.60;4.15;;;;;;;7.45;53.70;99494.69;258270;1116;115221;-84
2021/04/04 09:35:53;;;;;;;9.48;4.23;;;;;;;7.56;53.67;99508.34;258380;1116;114809;-83
2021/04/04 09:40:58;;;;;;;4.80;3.53;;;;;;;7.50;53.14;99507.73;258352;1115;114992;-84
2021/04/04 09:46:05;;;;;;;7.35;3.83;;;;;;;7.46;52.38;99506.14;258395;1116;114636;-84
2021/04/04 09:51:14;;;;;;;9.68;4.20;;;;;;;8.24;54.98;99490.34;256931;1116;114456;-89
2021/04/04 09:56:31;;;;;;;7.25;3.70;;;;;;;8.49;53.21;99482.18;257592;1116;114815;-89
2021/04/04 10:01:44;;;;;;;6.63;3.33;;;;;;;8.56;52.92;99476.56;257769;1116;114806;-87
2021/04/04 10:06:59;;;;;;;6.95;3.73;;;;;;;8.67;52.24;99480.45;258219;1116;114487;-86
2021/04/04 10:12:04;;;;;;;5.38;3.53;;;;;;;8.89;52.15;99461.70;258353;1116;115138;-88
2021/04/04 10:17:10;;;;;;;6.03;3.43;;;;;;;9.14;51.98;99468.48;258370;1117;114180;-88
2021/04/04 10:22:21;;;;;;;7.38;3.68;;;;;;;9.28;51.56;99475.77;258373;1117;114284;-89
2021/04/04 10:27:27;;;;;;;4.53;3.13;;;;;;;9.17;50.83;99466.55;258339;1117;114076;-89
2021/04/04 10:32:30;;;;;;;7.33;3.33;;;;;;;8.99;50.61;99462.97;258305;1117;114346;-89
2021/04/04 10:37:36;;;;;;;4.53;3.20;;;;;;;9.05;50.74;99459.17;258327;1117;114254;-88
2021/04/04 10:42:39;;;;;;;7.08;3.18;;;;;;;9.48;51.21;99444.61;258130;1117;114250;-88
2021/04/04 10:47:44;;;;;;;4.00;2.13;;;;;;;9.82;49.83;99436.70;258349;1117;114247;-91
2021/04/04 10:52:47;;;;;;;4.50;2.80;;;;;;;9.73;48.84;99437.17;257865;1117;114660;-84
2021/04/04 10:57:50;;;;;;;6.10;3.00;;;;;;;9.45;48.07;99435.94;258124;1117;114874;-92
2021/04/04 11:02:56;;;;;;;5.68;2.68;;;;;;;9.23;48.09;99430.84;258427;1117;114371;-86
2021/04/04 11:07:59;;;;;;;3.57;2.33;;;;;;;8.99;47.34;99430.27;257971;1117;115353;-84
2021/04/04 11:13:03;;;;;;;6.83;3.10;;;;;;;8.79;47.57;99419.77;258357;1115;114470;-87
2021/04/04 11:18:11;;;;;;;4.35;2.55;;;;;;;8.67;47.84;99424.73;258367;1116;114461;-87
2021/04/04 11:23:18;;;;;;;6.20;2.83;;;;;;;8.51;47.28;99421.95;258299;1116;114707;-86
2021/04/04 11:28:26;;;;;;;6.20;2.90;;;;;;;8.44;47.63;99427.62;258051;1118;114816;-86
2021/04/04 11:33:29;;;;;;;4.75;2.85;;;;;;;8.41;47.31;99423.31;258145;1117;114516;-82
2021/04/04 11:38:36;;;;;;;4.18;2.80;;;;;;;8.33;47.31;99413.98;257997;1118;114505;-87
2021/04/04 11:43:41;;;;;;;4.33;2.65;;;;;;;8.21;47.25;99410.09;258330;1117;114846;-85
2021/04/04 11:48:51;;;;;;;5.35;2.70;;;;;;;8.18;47.15;99404.93;257996;1117;114568;-84
2021/04/04 11:53:54;;;;;;;5.50;2.50;;;;;;;8.06;47.77;99407.22;258351;1117;114549;-87
2021/04/04 11:58:57;;;;;;;6.98;3.40;;;;;;;7.98;47.51;99401.42;257652;1117;114543;-86
2021/04/04 12:04:19;;;;;;;6.83;3.18;;;;;;;7.95;47.31;99400.70;258307;1117;114265;-87
2021/04/04 12:09:23;;;;;;;4.13;3.00;;;;;;;7.88;48.10;99391.28;258239;1117;115032;-86
2021/04/04 12:14:27;;;;;;;6.05;2.73;;;;;;;7.93;47.85;99384.86;258186;1116;114229;-89
2021/04/04 12:19:31;;;;;;;8.48;2.75;;;;;;;7.92;47.60;99380.50;258401;1117;114324;-87
2021/04/04 12:24:46;;;;;;;5.40;2.15;;;;;;;7.90;47.36;99371.75;258357;1118;114245;-82
2021/04/04 12:29:54;;;;;;;5.25;2.63;;;;;;;7.91;47.62;99364.66;258313;1119;114157;-84
2021/04/04 12:35:00;;;;;;;5.75;2.65;;;;;;;8.00;47.46;99356.29;256466;1117;114550;-88
2021/04/04 12:40:07;;;;;;;4.18;2.65;;;;;;;8.59;48.77;99354.40;258587;1117;113766;-86
2021/04/04 12:45:12;;;;;;;6.15;2.73;;;;;;;9.31;47.67;99335.72;258078;1119;114409;-87
2021/04/04 12:50:17;;;;;;;3.65;2.35;;;;;;;9.44;47.31;99327.94;258365;1118;114406;-86
2021/04/04 12:55:28;;;;;;;;;;;;;;;9.56;46.61;99319.33;258313;1116;114637;-83
2021/04/04 13:00:38;;;;;;;5.08;2.33;;;;;;;9.74;46.51;99308.65;258418;1118;100753;-84
2021/04/04 13:05:44;;;;;;;3.83;2.08;;;;;;;10.15;46.26;99306.36;258302;1117;114106;-88
2021/04/04 13:10:58;;;;;;;5.00;2.23;;;;;;;10.35;45.45;99306.13;258335;1116;114195;-84
2021/04/04 13:16:05;;;;;;;6.10;2.40;;;;;;;10.42;45.17;99298.66;258407;1116;114247;-82
2021/04/04 13:21:15;;;;;;;6.95;2.85;;;;;;;10.52;45.32;99283.03;258317;1116;115910;-79
2021/04/04 13:26:22;;;;;;;3.75;2.13;;;;;;;11.03;45.48;99279.09;258356;1116;114505;-81
2021/04/04 13:31:37;;;;;;;7.08;2.45;;;;;;;11.59;45.26;99276.59;258278;1118;114669;-87
2021/04/04 13:36:46;;;;;;;5.38;2.20;;;;;;;12.03;44.44;99268.47;258299;1116;114166;-80
2021/04/04 13:41:50;;;;;;;3.80;2.27;;;;;;;11.99;43.41;99264.30;258289;1117;115236;-81
2021/04/04 13:46:58;;;;;;;7.50;3.00;;;;;;;11.77;43.04;99258.57;258300;1117;114361;-81
2021/04/04 13:52:27;;;;;;;3.83;2.10;;;;;;;11.46;42.88;99252.50;258326;1117;114543;-85
2021/04/04 13:57:36;;;;;;;4.73;2.28;;;;;;;11.29;43.36;99242.03;258360;1117;114503;-85
2021/04/04 14:02:40;;;;;;;4.90;2.68;;;;;;;11.09;43.31;99236.11;258261;1117;114472;-82
2021/04/04 14:07:43;;;;;;;5.40;2.58;;;;;;;10.89;43.22;99236.46;257864;1117;114659;-83
2021/04/04 14:12:47;;;;;;;5.33;2.48;;;;;;;10.59;43.09;99236.48;257525;1118;114538;-86
2021/04/04 14:17:52;;;;;;;5.45;2.30;;;;;;;10.25;42.32;99238.41;258332;1117;114628;-89
2021/04/04 14:22:58;;;;;;;7.45;2.33;;;;;;;9.94;42.67;99244.61;256324;1118;114470;-90
2021/04/04 14:28:03;;;;;;;3.98;2.25;;;;;;;9.67;42.81;99231.91;255872;1118;115109;-88
2021/04/04 14:33:06;;;;;;;6.03;2.43;;;;;;;9.48;42.81;99232.08;252320;1116;113973;-89
2021/04/04 14:38:11;;;;;;;3.95;2.30;;;;;;;9.40;42.72;99223.66;258117;1118;114660;-89
2021/04/04 14:48:31;;;;;;;4.98;2.15;;;;;;;9.15;43.05;99205.54;258315;1116;113835;-86
2021/04/04 14:53:35;;;;;;;4.48;2.60;;;;;;;9.09;42.79;99195.24;258354;1116;114131;-90
2021/04/04 14:58:40;;;;;;;5.10;2.73;;;;;;;9.04;43.23;99184.03;258308;1118;114115;-90
2021/04/04 15:03:44;;;;;;;5.18;2.75;;;;;;;9.09;42.77;99179.31;258227;1117;114139;-91
2021/04/04 15:08:47;;;;;;;4.80;2.60;;;;;;;9.13;43.20;99178.20;256896;1117;114404;-89
2021/04/04 15:13:51;;;;;;;6.10;2.90;;;;;;;9.22;43.24;99177.71;257923;1119;114050;-89
2021/04/04 15:18:54;;;;;;;4.98;2.85;;;;;;;9.22;42.66;99161.78;258194;1116;114078;-90
2021/04/04 15:23:58;;;;;;;5.43;2.90;;;;;;;9.20;42.37;99163.69;258216;1117;114175;-90
2021/04/04 15:29:03;;;;;;;6.30;2.95;;;;;;;9.17;42.65;99158.53;258199;1116;114203;-88
2021/04/04 15:34:11;;;;;;;9.60;3.38;;;;;;;9.15;42.60;99155.09;257675;1117;113937;-90
2021/04/04 15:39:21;;;;;;;6.83;2.67;;;;;;;9.19;42.83;99148.67;258344;1116;114119;-90
2021/04/04 15:44:25;;;;;;;4.90;2.85;;;;;;;9.19;42.58;99153.98;258343;1117;114062;-90
2021/04/04 15:49:34;;;;;;;7.23;3.10;;;;;;;9.17;42.39;99137.30;257748;1117;113994;-92
2021/04/04 15:54:41;;;;;;;7.80;3.03;;;;;;;9.14;42.15;99132.15;258291;1116;113712;-90
2021/04/04 15:59:55;;;;;;;5.38;3.20;;;;;;;9.12;42.35;99133.16;258345;1117;113803;-85
2021/04/04 16:04:58;;;;;;;5.20;2.85;;;;;;;9.08;42.21;99115.70;258289;1117;114258;-86
2021/04/04 16:10:07;;;;;;;6.68;3.03;;;;;;;9.04;41.93;99119.47;256389;1118;114238;-93
2021/04/04 16:15:28;;;;;;;7.20;3.35;;;;;;;9.02;41.92;99114.22;257180;1116;117840;-90
2021/04/04 16:21:07;;;;;;;6.45;3.50;;;;;;;8.96;41.43;99107.44;253246;1118;113872;-92
2021/04/04 16:27:25;;;;;;;;;;;;;;;;;;;;;
2021/04/04 16:33:14;;;;;;;8.43;3.37;;;;;;;8.75;41.47;99108.60;255092;1120;117692;-85
2021/04/04 16:38:39;;;;;;;9.10;3.85;;;;;;;8.68;41.22;99104.56;255894;1120;114037;-92
2021/04/04 16:43:46;;;;;;;5.93;3.07;;;;;;;8.62;41.06;99102.23;252704;1111;114833;-65
2021/04/04 16:49:03;;;;;;;9.20;3.70;;;;;;;8.53;41.44;99104.45;257691;1119;114501;-67
2021/04/04 16:54:11;;;;;;;7.78;3.85;;;;;;;8.41;41.34;99105.08;257650;1119;114399;-67
2021/04/04 16:59:13;;;;;;;7.60;3.83;;;;;;;8.33;41.88;99096.64;257506;1119;114281;-67
2021/04/04 17:04:16;;;;;;;10.53;4.13;;;;;;;8.34;41.98;99090.39;257605;1119;114396;-65
2021/04/04 17:09:19;;;;;;;10.95;4.40;;;;;;;8.28;42.08;99085.41;257668;1119;114731;-66
2021/04/04 17:14:22;;;;;;;12.23;4.70;;;;;;;8.17;42.08;99088.61;257775;1118;114606;-65
2021/04/04 17:19:24;;;;;;;8.50;4.50;;;;;;;8.10;41.93;99099.62;257639;1119;115006;-65
2021/04/04 17:24:27;;;;;;;9.45;4.38;;;;;;;8.02;41.52;99098.22;257864;1118;114406;-67
2021/04/04 17:29:31;;;;;;;9.38;4.50;;;;;;;7.94;42.13;99096.88;257668;1118;114065;-67
2021/04/04 17:34:40;;;;;;;8.25;4.38;;;;;;;7.86;41.67;99097.27;257535;1119;114499;-67
2021/04/04 17:39:45;;;;;;;9.48;5.13;;;;;;;7.79;41.46;99091.42;257670;1118;114820;-67
2021/04/04 17:44:58;;;;;;;9.55;4.98;;;;;;;7.72;41.73;99100.61;257566;1118;114398;-67
2021/04/04 17:50:10;;;;;;;9.35;5.00;;;;;;;7.68;42.19;99098.20;257734;1119;114983;-66
2021/04/04 17:55:14;;;;;;;12.48;4.93;;;;;;;7.62;41.75;99094.05;258173;1119;114669;-65
2021/04/04 18:00:21;;;;;;;10.03;4.95;;;;;;;7.56;42.41;99091.69;257547;1119;114607;-66
2021/04/04 18:11:02;;;;;;;13.70;6.10;;;;;;;7.48;43.08;99093.87;256830;1119;114714;-66
2021/04/04 18:16:36;;;;;;;12.28;5.55;;;;;;;7.41;42.71;99090.66;257708;1118;114491;-68
2021/04/04 18:22:22;;;;;;;11.20;5.50;;;;;;;7.34;43.18;99097.19;257625;1118;114564;-67
2021/04/04 18:27:36;;;;;;;10.55;5.40;;;;;;;7.22;43.34;99093.31;257733;1118;114837;-66
2021/04/04 18:32:44;;;;;;;11.68;5.70;;;;;;;7.13;43.39;99087.59;257684;1119;114626;-68
2021/04/04 18:37:48;;;;;;;12.88;6.33;;;;;;;7.07;43.63;99083.47;257765;1119;115256;-68
2021/04/04 18:42:57;;;;;;;13.23;6.10;;;;;;;7.04;43.75;99084.46;257974;1119;114602;-67
2021/04/04 18:48:03;;;;;;;13.18;6.08;;;;;;;7.02;43.42;99088.95;258250;1118;114870;-67
2021/04/04 18:53:07;;;;;;;13.55;6.48;;;;;;;6.98;43.68;99071.52;258261;1118;114511;-66
2021/04/04 18:58:23;;;;;;;;;;;;;;;;;;;;;
2021/04/04 19:03:38;;;;;;;;;;;;;;;;;;;;;
2021/04/04 19:08:45;;;;;;;12.33;6.83;;;;;;;6.80;43.82;99072.38;257569;1118;114746;-67
2021/04/04 19:13:49;;;;;;;12.95;6.68;;;;;;;6.76;44.03;99073.42;257799;1117;114594;-67
2021/04/04 19:18:56;;;;;;;15.08;6.83;;;;;;;6.74;44.43;99070.87;257751;1118;114675;-67
2021/04/04 19:24:08;;;;;;;14.78;6.98;;;;;;;6.70;44.08;99066.66;258304;1116;114828;-67
2021/04/04 19:29:14;;;;;;;14.05;7.55;;;;;;;6.69;44.77;99053.48;257747;1119;114775;-66
2021/04/04 19:34:28;;;;;;;12.60;7.25;;;;;;;6.67;44.39;99053.56;257507;1118;114567;-77
2021/04/04 19:40:01;;;;;;;19.00;7.60;;;;;;;6.58;44.44;99046.90;258166;1113;114641;-76
2021/04/04 19:45:09;;;;;;;14.45;7.13;;;;;;;6.49;44.03;99041.17;256357;1118;114639;-79
2021/04/04 19:50:13;;;;;;;15.50;7.05;;;;;;;6.37;44.20;99038.16;257710;1118;114695;-79
2021/04/04 19:55:19;;;;;;;14.78;8.10;;;;;;;6.25;44.70;99038.73;257698;1119;114660;-79
2021/04/04 20:00:23;;;;;;;19.73;9.93;;;;;;;6.19;44.66;99023.14;257326;1118;114532;-79
2021/04/04 20:05:27;;;;;;;19.55;9.40;;;;;;;6.08;45.04;99015.70;257703;1119;115117;-79
2021/04/04 20:10:36;;;;;;;20.37;9.97;;;;;;;6.01;45.79;99016.89;257538;1117;114925;-78
2021/04/04 20:15:38;;;;;;;25.38;10.65;;;;;;;5.95;45.40;99008.38;257667;1118;114822;-79
2021/04/04 20:20:41;;;;;;;21.85;10.93;;;;;;;5.92;45.37;98998.77;257674;1118;114952;-79
2021/04/04 20:25:45;;;;;;;19.05;10.90;;;;;;;5.89;45.80;98997.11;257515;1117;114964;-79
2021/04/04 20:30:47;;;;;;;24.10;12.75;;;;;;;5.86;46.04;98999.88;257713;1118;115115;-79
2021/04/04 20:35:54;;;;;;;22.80;11.85;;;;;;;5.81;46.46;98993.95;257642;1117;115210;-79
2021/04/04 20:40:57;;;;;;;24.98;13.18;;;;;;;5.73;45.92;98982.84;257522;1117;114903;-72
2021/04/04 20:45:59;;;;;;;29.43;13.43;;;;;;;5.69;45.80;98982.13;257549;1118;114789;-72
2021/04/04 20:51:03;;;;;;;29.65;13.90;;;;;;;5.65;46.22;98972.63;257743;1117;114924;-72
2021/04/04 20:56:06;;;;;;;29.73;14.10;;;;;;;5.66;46.63;98962.92;257614;1117;115424;-72
2021/04/04 21:01:09;;;;;;;29.68;14.48;;;;;;;5.63;47.12;98965.69;257647;1118;115124;-73
2021/04/04 21:06:14;;;;;;;29.28;14.95;;;;;;;5.58;46.62;98968.54;257657;1118;115156;-73
2021/04/04 21:11:16;;;;;;;28.90;14.37;;;;;;;5.54;47.06;98947.63;257640;1118;115109;-73
2021/04/04 21:16:19;;;;;;;30.83;14.63;;;;;;;5.48;46.86;98948.73;257399;1118;115054;-72
2021/04/04 21:21:22;;;;;;;29.30;14.83;;;;;;;5.44;47.00;98939.25;257696;1118;115085;-73
2021/04/04 21:26:25;;;;;;;28.00;14.78;;;;;;;5.38;47.38;98932.44;257761;1119;115218;-73
2021/04/04 21:31:28;;;;;;;29.60;14.85;;;;;;;5.35;47.43;98934.34;257544;1118;114858;-73
2021/04/04 21:36:31;;;;;;;28.40;14.83;;;;;;;5.32;47.66;98929.20;257786;1118;114843;-74
2021/04/04 21:41:34;;;;;;;28.88;14.25;;;;;;;5.28;47.27;98925.83;257668;1117;114939;-72
2021/04/04 21:46:37;;;;;;;27.50;14.58;;;;;;;5.28;47.87;98917.06;257766;1118;114952;-73
2021/04/04 21:51:40;;;;;;;32.75;15.85;;;;;;;5.21;47.57;98909.41;257635;1119;114842;-72
2021/04/04 21:56:44;;;;;;;29.55;15.10;;;;;;;5.20;48.31;98905.06;257726;1118;115097;-73
2021/04/04 22:01:46;;;;;;;33.48;16.83;;;;;;;5.17;48.32;98899.06;257871;1118;115540;-78
2021/04/04 22:06:53;;;;;;;33.13;16.08;;;;;;;5.14;47.69;98892.13;257572;1118;114940;-72
2021/04/04 22:12:00;;;;;;;30.50;15.20;;;;;;;5.07;47.82;98887.18;257432;1117;114959;-72
2021/04/04 22:17:14;;;;;;;33.07;15.63;;;;;;;5.04;47.71;98885.52;257704;1117;114822;-73
2021/04/04 22:22:20;;;;;;;30.78;15.73;;;;;;;4.96;48.31;98874.45;257614;1118;115447;-73
2021/04/04 22:27:26;;;;;;;29.10;15.30;;;;;;;4.94;48.39;98869.22;257780;1118;115053;-72
2021/04/04 22:32:29;;;;;;;34.60;15.88;;;;;;;4.93;48.27;98858.75;257387;1118;115131;-72
2021/04/04 22:37:33;;;;;;;26.08;15.25;;;;;;;4.87;48.60;98849.31;257477;1117;115065;-73
2021/04/04 22:42:35;;;;;;;30.98;15.65;;;;;;;4.81;48.40;98839.02;257582;1117;115152;-73
2021/04/04 22:47:39;;;;;;;33.20;16.40;;;;;;;4.75;48.65;98826.09;257470;1117;115015;-72
2021/04/04 22:52:41;;;;;;;30.03;16.00;;;;;;;4.71;48.66;98827.14;257391;1118;115378;-72
2021/04/04 22:57:46;;;;;;;34.28;16.68;;;;;;;4.69;49.30;98823.73;257595;1118;114982;-72
2021/04/04 23:02:49;;;;;;;34.53;16.83;;;;;;;4.66;49.25;98813.31;257447;1118;114718;-73
2021/04/04 23:07:52;;;;;;;33.50;15.95;;;;;;;4.58;48.80;98804.85;257552;1118;114634;-73
2021/04/04 23:12:57;;;;;;;28.83;14.95;;;;;;;4.51;48.99;98796.34;257865;1118;114870;-73
2021/04/04 23:17:59;;;;;;;;;;;;;;;4.43;49.08;98790.55;258015;1117;114504;-72
2021/04/04 23:23:02;;;;;;;27.93;15.30;;;;;;;4.39;49.59;98781.06;257603;1117;102218;-72
2021/04/04 23:28:06;;;;;;;34.05;17.38;;;;;;;4.34;49.39;98765.42;257770;1118;114818;-72
2021/04/04 23:33:09;;;;;;;32.93;16.40;;;;;;;4.31;49.78;98754.16;257530;1118;114729;-71
2021/04/04 23:38:12;;;;;;;32.95;16.25;;;;;;;4.26;49.92;98752.58;257526;1118;114911;-72
2021/04/04 23:43:16;;;;;;;31.70;16.03;;;;;;;4.24;49.71;98745.64;257599;1118;115051;-72
2021/04/04 23:48:22;;;;;;;31.53;15.28;;;;;;;4.22;49.65;98739.61;257475;1118;115402;-71
2021/04/04 23:53:26;;;;;;;28.08;13.98;;;;;;;4.17;49.66;98728.38;257403;1118;114870;-72
2021/04/04 23:58:30;;;;;;;29.73;14.80;;;;;;;4.17;49.84;98731.02;257785;1118;114826;-72
